Time;durP1;ratioP1;P1;durP2;ratioP2;P2;SDS_P1;SDS_P2;PMS_P1;PMS_P2;Temp;Humidity;BMP_temperature;BMP_pressure;BME280_temperature;BME280_humidity;BME280_pressure;Samples;Min_cycle;Max_cycle;Signal;HPM_P1;HPM_P2
2023/03/01 00:00:11;;;;;;;;;;;;;;;;;;5123122;27;20325;-90
2023/03/01 00:02:37;;;;;;;;;;;;;;;;;;5120529;27;20376;-91
2023/03/01 00:05:03;;;;;;;;;;;;;;;;;;5119277;27;19922;-90
2023/03/01 00:07:28;;;;;;;;;;;;;;;;;;5118135;27;19919;-91
2023/03/01 00:09:54;;;;;;;;;;;;;;;;;;5122181;27;20391;-90
2023/03/01 00:12:20;;;;;;;;;;;;;;;;;;5135466;27;19923;-90
2023/03/01 00:14:46;;;;;;;;;;;;;;;;;;5107438;27;19966;-90
2023/03/01 00:17:12;;;;;;;;;;;;;;;;;;5107292;27;19926;-90
2023/03/01 00:19:38;;;;;;;;;;;;;;;;;;5123824;27;20042;-90
2023/03/01 00:22:10;;;;;;;;;;;;;;;;;;5117572;27;20391;-91
2023/03/01 00:24:36;;;;;;;;;;;;;;;;;;5120691;27;20384;-90
2023/03/01 00:27:01;;;;;;;;;;;;;;;;;;5121451;27;19983;-90
2023/03/01 00:29:27;;;;;;;;;;;;;;;;;;5139248;27;19923;-90
2023/03/01 00:31:53;;;;;;;;;;;;;;;;;;5121691;27;19919;-91
2023/03/01 00:34:19;;;;;;;;;;;;;;;;;;5118424;27;19941;-90
2023/03/01 00:36:45;;;;;;;;;;;;;;;;;;5127348;27;20290;-91
2023/03/01 00:39:11;;;;;;;;;;;;;;;;;;5125933;27;20423;-90
2023/03/01 00:41:37;;;;;;;;;;;;;;;;;;5133975;27;19977;-90
2023/03/01 00:44:03;;;;;;;;;;;;;;;;;;5117427;27;19919;-90
2023/03/01 00:46:30;;;;;;;;;;;;;;;;;;5127586;27;19968;-90
2023/03/01 00:48:56;;;;;;;;;;;;;;;;;;5129500;27;19919;-90
2023/03/01 00:51:22;;;;;;;;;;;;;;;;;;5123483;27;19919;-90
2023/03/01 00:53:48;;;;;;;;;;;;;;;;;;5120898;27;19923;-90
2023/03/01 00:56:14;;;;;;;;;;;;;;;;;;5139407;27;19927;-90
2023/03/01 00:58:40;;;;;;;;;;;;;;;;;;5118601;27;20469;-90
2023/03/01 01:01:16;;;;;;;;;;;;;;;;;;5129686;27;19974;-89
2023/03/01 01:03:42;;;;;;;;;;;;;;;;;;5110052;27;19926;-90
2023/03/01 01:06:09;;;;;;;;;;;;;;;;;;5121863;27;19919;-90
2023/03/01 01:08:35;;;;;;;;;;;;;;;;;;5105990;27;19919;-89
2023/03/01 01:11:00;;;;;;;;;;;;;;;;;;5101797;27;20010;-90
2023/03/01 01:13:26;;;;;;;;;;;;;;;;;;5107696;27;20006;-89
2023/03/01 01:15:52;;;;;;;;;;;;;;;;;;5120334;27;20003;-90
2023/03/01 01:18:18;;;;;;;;;;;;;;;;;;5121748;27;19919;-90
2023/03/01 01:20:46;;;;;;;;;;;;;;;;;;5121065;27;19919;-90
2023/03/01 01:23:12;;;;;;;;;;;;;;;;;;5106907;27;19927;-90
2023/03/01 01:25:38;;;;;;;;;;;;;;;;;;5118497;27;20364;-90
2023/03/01 01:28:04;;;;;;;;;;;;;;;;;;5109903;27;20345;-90
2023/03/01 01:30:29;;;;;;;;;;;;;;;;;;5117700;27;19967;-90
2023/03/01 01:32:57;;;;;;;;;;;;;;;;;;5126254;27;19918;-89
2023/03/01 01:35:23;;;;;;;;;;;;;;;;;;5105958;27;19935;-90
2023/03/01 01:37:48;;;;;;;;;;;;;;;;;;5135134;27;19926;-90
2023/03/01 01:40:14;;;;;;;;;;;;;;;;;;5120768;27;19926;-90
2023/03/01 01:42:40;;;;;;;;;;;;;;;;;;5123689;27;19987;-90
2023/03/01 01:45:06;;;;;;;;;;;;;;;;;;5121231;27;19919;-90
2023/03/01 01:47:32;;;;;;;;;;;;;;;;;;5136702;27;19925;-90
2023/03/01 01:49:58;;;;;;;;;;;;;;;;;;5104050;27;19931;-89
2023/03/01 01:52:25;;;;;;;;;;;;;;;;;;5100475;27;19919;-89
2023/03/01 01:54:51;;;;;;;;;;;;;;;;;;5111177;27;20013;-90
2023/03/01 01:57:17;;;;;;;;;;;;;;;;;;5100832;27;19962;-90
2023/03/01 01:59:43;;;;;;;;;;;;;;;;;;5103847;27;19920;-90
2023/03/01 02:02:08;;;;;;;;;;;;;;;;;;5125601;27;20376;-89
2023/03/01 02:04:34;;;;;;;;;;;;;;;;;;5117147;27;19923;-89
2023/03/01 02:07:00;;;;;;;;;;;;;;;;;;5108710;27;19919;-90
2023/03/01 02:09:26;;;;;;;;;;;;;;;;;;5115219;27;20341;-89
2023/03/01 02:11:52;;;;;;;;;;;;;;;;;;5100177;27;19926;-89
2023/03/01 02:14:18;;;;;;;;;;;;;;;;;;5099356;27;19926;-89
2023/03/01 02:16:44;;;;;;;;;;;;;;;;;;5100070;27;19926;-90
2023/03/01 02:19:10;;;;;;;;;;;;;;;;;;5099687;27;19919;-89
2023/03/01 02:21:37;;;;;;;;;;;;;;;;;;5117153;27;19919;-89
2023/03/01 02:24:03;;;;;;;;;;;;;;;;;;5100310;27;19959;-89
2023/03/01 02:26:29;;;;;;;;;;;;;;;;;;5104527;27;19926;-89
2023/03/01 02:28:55;;;;;;;;;;;;;;;;;;5137312;27;19967;-87
2023/03/01 02:34:06;;;;;;;;;;;;;;;;;;5137511;27;19964;-88
2023/03/01 02:36:32;;;;;;;;;;;;;;;;;;5120479;27;19972;-89
2023/03/01 02:38:58;;;;;;;;;;;;;;;;;;5120473;27;20376;-89
2023/03/01 02:41:24;;;;;;;;;;;;;;;;;;5120316;27;19919;-89
2023/03/01 02:43:50;;;;;;;;;;;;;;;;;;5120393;27;19963;-89
2023/03/01 02:46:15;;;;;;;;;;;;;;;;;;5120093;27;19974;-89
2023/03/01 02:48:41;;;;;;;;;;;;;;;;;;5120222;27;20368;-89
2023/03/01 02:51:08;;;;;;;;;;;;;;;;;;5119670;27;20377;-89
2023/03/01 02:53:33;;;;;;;;;;;;;;;;;;5120100;27;19918;-89
2023/03/01 02:55:59;;;;;;;;;;;;;;;;;;5120226;27;20387;-89
2023/03/01 02:58:25;;;;;;;;;;;;;;;;;;5120151;27;19926;-89
2023/03/01 03:00:51;;;;;;;;;;;;;;;;;;5119802;27;19922;-89
2023/03/01 03:03:17;;;;;;;;;;;;;;;;;;5119258;27;19919;-89
2023/03/01 03:05:43;;;;;;;;;;;;;;;;;;5119076;27;20380;-89
2023/03/01 03:08:09;;;;;;;;;;;;;;;;;;5119851;27;19926;-89
2023/03/01 03:10:35;;;;;;;;;;;;;;;;;;5119208;27;19923;-88
2023/03/01 03:13:01;;;;;;;;;;;;;;;;;;5119678;27;19975;-88
2023/03/01 03:15:27;;;;;;;;;;;;;;;;;;5119674;27;20330;-89
2023/03/01 03:17:52;;;;;;;;;;;;;;;;;;5119542;27;19975;-88
2023/03/01 03:20:18;;;;;;;;;;;;;;;;;;5103587;28;20048;-89
2023/03/01 03:22:44;;;;;;;;;;;;;;;;;;5098839;27;20002;-88
2023/03/01 03:25:10;;;;;;;;;;;;;;;;;;5098920;28;20456;-89
2023/03/01 03:27:37;;;;;;;;;;;;;;;;;;5099111;28;19965;-89
2023/03/01 03:30:03;;;;;;;;;;;;;;;;;;5098813;28;19930;-89
2023/03/01 03:32:29;;;;;;;;;;;;;;;;;;5099025;28;19919;-89
2023/03/01 03:34:55;;;;;;;;;;;;;;;;;;5099032;28;19942;-89
2023/03/01 03:40:15;;;;;;;;;;;;;;;;;;5115482;28;19923;-88
2023/03/01 03:42:40;;;;;;;;;;;;;;;;;;5115696;27;19955;-88
2023/03/01 03:45:06;;;;;;;;;;;;;;;;;;5119204;27;20365;-88
2023/03/01 03:47:32;;;;;;;;;;;;;;;;;;5137017;27;19919;-89
2023/03/01 03:49:58;;;;;;;;;;;;;;;;;;5114414;27;19923;-89
2023/03/01 03:52:24;;;;;;;;;;;;;;;;;;5121835;28;19923;-89
2023/03/01 03:54:50;;;;;;;;;;;;;;;;;;5099265;28;20307;-89
2023/03/01 03:57:16;;;;;;;;;;;;;;;;;;5099119;28;19927;-88
2023/03/01 03:59:42;;;;;;;;;;;;;;;;;;5115401;28;19919;-89
2023/03/01 04:02:08;;;;;;;;;;;;;;;;;;5099045;28;20372;-89
2023/03/01 04:04:34;;;;;;;;;;;;;;;;;;5099151;28;19919;-89
2023/03/01 04:07:00;;;;;;;;;;;;;;;;;;5098933;28;19926;-89
2023/03/01 04:09:26;;;;;;;;;;;;;;;;;;5098601;28;19923;-89
2023/03/01 04:11:52;;;;;;;;;;;;;;;;;;5124877;27;19919;-89
2023/03/01 04:14:18;;;;;;;;;;;;;;;;;;5119078;27;19926;-89
2023/03/01 04:16:44;;;;;;;;;;;;;;;;;;5119061;27;20295;-89
2023/03/01 04:19:10;;;;;;;;;;;;;;;;;;5118640;27;19923;-89
2023/03/01 04:21:36;;;;;;;;;;;;;;;;;;5119306;27;20415;-89
2023/03/01 04:24:03;;;;;;;;;;;;;;;;;;5119208;27;19977;-89
2023/03/01 04:26:29;;;;;;;;;;;;;;;;;;5119037;27;19919;-90
2023/03/01 04:28:55;;;;;;;;;;;;;;;;;;5118701;27;19919;-89
2023/03/01 04:31:21;;;;;;;;;;;;;;;;;;5118613;27;19929;-89
2023/03/01 04:33:47;;;;;;;;;;;;;;;;;;5118903;27;19926;-89
2023/03/01 04:36:13;;;;;;;;;;;;;;;;;;5118883;27;19923;-87
2023/03/01 04:38:39;;;;;;;;;;;;;;;;;;5122201;27;19920;-88
2023/03/01 04:41:04;;;;;;;;;;;;;;;;;;5139390;27;19926;-88
2023/03/01 04:43:30;;;;;;;;;;;;;;;;;;5122481;27;19967;-88
2023/03/01 04:45:56;;;;;;;;;;;;;;;;;;5122470;27;19958;-88
2023/03/01 04:48:22;;;;;;;;;;;;;;;;;;5122329;27;19919;-89
2023/03/01 04:50:48;;;;;;;;;;;;;;;;;;5121847;27;20432;-88
2023/03/01 04:53:14;;;;;;;;;;;;;;;;;;5122449;27;20002;-88
2023/03/01 04:55:40;;;;;;;;;;;;;;;;;;5122243;27;19926;-88
2023/03/01 04:58:06;;;;;;;;;;;;;;;;;;5139539;27;20399;-88
2023/03/01 05:00:32;;;;;;;;;;;;;;;;;;5121986;27;20291;-89
2023/03/01 05:05:35;;;;;;;;;;;;;;;;;;5118128;27;19926;-88
2023/03/01 05:08:01;;;;;;;;;;;;;;;;;;5101122;27;19923;-88
2023/03/01 05:10:28;;;;;;;;;;;;;;;;;;5100509;27;19931;-88
2023/03/01 05:12:54;;;;;;;;;;;;;;;;;;5101007;27;19926;-88
2023/03/01 05:15:21;;;;;;;;;;;;;;;;;;5118235;27;20288;-89
2023/03/01 05:17:47;;;;;;;;;;;;;;;;;;5100854;27;19937;-89
2023/03/01 05:20:13;;;;;;;;;;;;;;;;;;5100460;27;19920;-88
2023/03/01 05:22:39;;;;;;;;;;;;;;;;;;5108569;27;19919;-89
2023/03/01 05:25:05;;;;;;;;;;;;;;;;;;5122098;27;19919;-89
2023/03/01 05:27:31;;;;;;;;;;;;;;;;;;5135654;27;19997;-89
2023/03/01 05:29:57;;;;;;;;;;;;;;;;;;5133651;27;20009;-89
2023/03/01 05:32:23;;;;;;;;;;;;;;;;;;5141646;27;20264;-88
2023/03/01 05:34:49;;;;;;;;;;;;;;;;;;5158835;27;19918;-89
2023/03/01 05:37:15;;;;;;;;;;;;;;;;;;5141601;27;19923;-88
2023/03/01 05:39:41;;;;;;;;;;;;;;;;;;5141254;27;19923;-89
2023/03/01 05:42:08;;;;;;;;;;;;;;;;;;5141871;27;19925;-89
2023/03/01 05:44:34;;;;;;;;;;;;;;;;;;5141599;27;19964;-89
2023/03/01 05:47:00;;;;;;;;;;;;;;;;;;5141196;27;19919;-88
2023/03/01 05:49:26;;;;;;;;;;;;;;;;;;5122726;27;20380;-89
2023/03/01 05:51:52;;;;;;;;;;;;;;;;;;5137358;27;19922;-88
2023/03/01 05:54:18;;;;;;;;;;;;;;;;;;5141531;27;19919;-89
2023/03/01 05:56:43;;;;;;;;;;;;;;;;;;5141027;27;19927;-89
2023/03/01 05:59:09;;;;;;;;;;;;;;;;;;5140728;27;20375;-89
2023/03/01 06:01:36;;;;;;;;;;;;;;;;;;5121173;27;19919;-89
2023/03/01 06:04:02;;;;;;;;;;;;;;;;;;5117352;27;20013;-89
2023/03/01 06:06:28;;;;;;;;;;;;;;;;;;5100024;27;19974;-89
2023/03/01 06:08:54;;;;;;;;;;;;;;;;;;5099805;27;19973;-89
2023/03/01 06:11:20;;;;;;;;;;;;;;;;;;5099645;27;20432;-89
2023/03/01 06:13:46;;;;;;;;;;;;;;;;;;5130351;27;19954;-89
2023/03/01 06:16:11;;;;;;;;;;;;;;;;;;5158027;27;19962;-89
2023/03/01 06:18:37;;;;;;;;;;;;;;;;;;5141270;27;20426;-89
2023/03/01 06:21:03;;;;;;;;;;;;;;;;;;5116758;27;20001;-89
2023/03/01 06:23:29;;;;;;;;;;;;;;;;;;5111950;27;19923;-89
2023/03/01 06:26:08;;;;;;;;;;;;;;;;;;5118719;27;19920;-89
2023/03/01 06:28:34;;;;;;;;;;;;;;;;;;5111067;27;19919;-89
2023/03/01 06:31:00;;;;;;;;;;;;;;;;;;5119377;27;19923;-89
2023/03/01 06:33:26;;;;;;;;;;;;;;;;;;5119714;27;20367;-89
2023/03/01 06:35:52;;;;;;;;;;;;;;;;;;5121684;27;19919;-89
2023/03/01 06:38:18;;;;;;;;;;;;;;;;;;5123189;27;20371;-89
2023/03/01 06:40:44;;;;;;;;;;;;;;;;;;5122753;27;19919;-88
2023/03/01 06:43:10;;;;;;;;;;;;;;;;;;5099236;27;19927;-88
2023/03/01 06:45:37;;;;;;;;;;;;;;;;;;5099700;27;20273;-88
2023/03/01 06:48:04;;;;;;;;;;;;;;;;;;5128027;27;19919;-89
2023/03/01 06:50:30;;;;;;;;;;;;;;;;;;5119141;27;20046;-89
2023/03/01 06:52:56;;;;;;;;;;;;;;;;;;5119483;27;20013;-88
2023/03/01 06:55:22;;;;;;;;;;;;;;;;;;5115577;27;19924;-88
2023/03/01 06:57:48;;;;;;;;;;;;;;;;;;5098751;27;20351;-88
2023/03/01 07:00:14;;;;;;;;;;;;;;;;;;5117594;27;20005;-89
2023/03/01 07:02:40;;;;;;;;;;;;;;;;;;5132123;27;19975;-88
2023/03/01 07:05:05;;;;;;;;;;;;;;;;;;5115117;27;20436;-88
2023/03/01 07:07:31;;;;;;;;;;;;;;;;;;5119569;27;19974;-88
2023/03/01 07:09:58;;;;;;;;;;;;;;;;;;5119040;27;20015;-86
2023/03/01 07:12:24;;;;;;;;;;;;;;;;;;5136238;27;19925;-88
2023/03/01 07:14:50;;;;;;;;;;;;;;;;;;5117490;27;19919;-88
2023/03/01 07:17:16;;;;;;;;;;;;;;;;;;5132180;27;20397;-89
2023/03/01 07:19:42;;;;;;;;;;;;;;;;;;5118626;27;20011;-88
2023/03/01 07:22:09;;;;;;;;;;;;;;;;;;5115025;28;20404;-90
2023/03/01 07:24:35;;;;;;;;;;;;;;;;;;5130041;27;19920;-88
2023/03/01 07:27:00;;;;;;;;;;;;;;;;;;5122965;27;19933;-88
2023/03/01 07:32:30;;;;;;;;;;;;;;;;;;5156247;27;20009;-89
2023/03/01 07:34:56;;;;;;;;;;;;;;;;;;5118764;27;19954;-89
2023/03/01 07:37:35;;;;;;;;;;;;;;;;;;5118952;28;19930;-92
2023/03/01 07:40:01;;;;;;;;;;;;;;;;;;5101994;27;19919;-90
2023/03/01 07:45:36;;;;;;;;;;;;;;;;;;5154520;27;19918;-92
2023/03/01 07:48:02;;;;;;;;;;;;;;;;;;5103825;28;19927;-91
2023/03/01 07:50:28;;;;;;;;;;;;;;;;;;5118704;28;19920;-90
2023/03/01 07:52:54;;;;;;;;;;;;;;;;;;5107386;27;19976;-89
2023/03/01 07:55:32;;;;;;;;;;;;;;;;;;5111925;27;19925;-91
2023/03/01 07:57:58;;;;;;;;;;;;;;;;;;5100983;28;19964;-91
2023/03/01 08:00:24;;;;;;;;;;;;;;;;;;5106001;28;19923;-91
2023/03/01 08:02:50;;;;;;;;;;;;;;;;;;5122263;27;19920;-89
2023/03/01 08:08:19;;;;;;;;;;;;;;;;;;5145928;27;19918;-89
2023/03/01 08:10:45;;;;;;;;;;;;;;;;;;5118753;27;19920;-89
2023/03/01 08:13:11;;;;;;;;;;;;;;;;;;5134157;27;20354;-89
2023/03/01 08:15:37;;;;;;;;;;;;;;;;;;5156922;27;19934;-88
2023/03/01 08:18:03;;;;;;;;;;;;;;;;;;5101851;27;19923;-90
2023/03/01 08:20:29;;;;;;;;;;;;;;;;;;5142628;27;19918;-89
2023/03/01 08:22:55;;;;;;;;;;;;;;;;;;5143187;27;19929;-90
2023/03/01 08:25:21;;;;;;;;;;;;;;;;;;5120201;27;20242;-91
2023/03/01 08:27:47;;;;;;;;;;;;;;;;;;5108323;27;20010;-90
2023/03/01 08:30:13;;;;;;;;;;;;;;;;;;5102192;27;20368;-90
2023/03/01 08:35:17;;;;;;;;;;;;;;;;;;5147941;27;19919;-90
2023/03/01 08:37:43;;;;;;;;;;;;;;;;;;5120706;27;19999;-89
2023/03/01 08:40:09;;;;;;;;;;;;;;;;;;5101486;27;19919;-90
2023/03/01 08:42:35;;;;;;;;;;;;;;;;;;5104662;27;19926;-92
2023/03/01 08:45:01;;;;;;;;;;;;;;;;;;5122361;27;19923;-96
2023/03/01 08:47:27;;;;;;;;;;;;;;;;;;5127437;27;19958;-92
2023/03/01 08:49:53;;;;;;;;;;;;;;;;;;5128519;27;19919;-91
2023/03/01 08:52:19;;;;;;;;;;;;;;;;;;5125234;27;19923;-93
2023/03/01 08:57:40;;;;;;;;;;;;;;;;;;5144486;27;20299;-93
2023/03/01 09:00:08;;;;;;;;;;;;;;;;;;5153030;27;19918;-93
2023/03/01 09:02:34;;;;;;;;;;;;;;;;;;5144393;27;19918;-94
2023/03/01 09:05:00;;;;;;;;;;;;;;;;;;5130688;27;19988;-93
2023/03/01 09:07:28;;;;;;;;;;;;;;;;;;5158443;27;20382;-93
2023/03/01 09:09:54;;;;;;;;;;;;;;;;;;5123760;27;20017;-94
2023/03/01 09:12:21;;;;;;;;;;;;;;;;;;5116662;27;20328;-93
2023/03/01 09:14:46;;;;;;;;;;;;;;;;;;5117355;27;19950;-93
2023/03/01 09:17:12;;;;;;;;;;;;;;;;;;5132233;27;20264;-93
2023/03/01 09:19:38;;;;;;;;;;;;;;;;;;5133105;27;20364;-92
2023/03/01 09:22:04;;;;;;;;;;;;;;;;;;5112211;27;19919;-93
2023/03/01 09:24:30;;;;;;;;;;;;;;;;;;5137421;27;19929;-92
2023/03/01 09:27:12;;;;;;;;;;;;;;;;;;5125057;27;19919;-92
2023/03/01 09:29:38;;;;;;;;;;;;;;;;;;5116505;27;19996;-93
2023/03/01 09:32:04;;;;;;;;;;;;;;;;;;5119457;27;20391;-93
2023/03/01 09:34:30;;;;;;;;;;;;;;;;;;5122045;27;19930;-91
2023/03/01 09:36:56;;;;;;;;;;;;;;;;;;5121955;27;19968;-92
2023/03/01 09:39:22;;;;;;;;;;;;;;;;;;5121232;27;19934;-91
2023/03/01 09:41:51;;;;;;;;;;;;;;;;;;5102839;27;19969;-92
2023/03/01 09:44:18;;;;;;;;;;;;;;;;;;5108413;27;20295;-92
2023/03/01 09:49:40;;;;;;;;;;;;;;;;;;5131065;27;19923;-94
2023/03/01 09:52:25;;;;;;;;;;;;;;;;;;5121492;27;19974;-95
2023/03/01 09:55:07;;;;;;;;;;;;;;;;;;5102520;27;19930;-93
2023/03/01 09:57:34;;;;;;;;;;;;;;;;;;5101302;27;19927;-95
2023/03/01 10:00:00;;;;;;;;;;;;;;;;;;5101385;27;19972;-93
2023/03/01 10:02:26;;;;;;;;;;;;;;;;;;5109942;27;19919;-93
2023/03/01 10:05:00;;;;;;;;;;;;;;;;;;5105849;27;19923;-92
2023/03/01 10:07:26;;;;;;;;;;;;;;;;;;5120422;27;19919;-93
2023/03/01 10:09:52;;;;;;;;;;;;;;;;;;5116019;27;20010;-93
2023/03/01 10:12:18;;;;;;;;;;;;;;;;;;5117158;27;20357;-92
2023/03/01 10:14:44;;;;;;;;;;;;;;;;;;5120343;27;19919;-95
2023/03/01 10:17:11;;;;;;;;;;;;;;;;;;5121295;27;19919;-93
2023/03/01 10:19:37;;;;;;;;;;;;;;;;;;5131582;27;19919;-93
2023/03/01 10:22:03;;;;;;;;;;;;;;;;;;5107043;27;19933;-91
2023/03/01 10:24:28;;;;;;;;;;;;;;;;;;5127986;27;19974;-93
2023/03/01 10:26:55;;;;;;;;;;;;;;;;;;5127140;27;20011;-90
2023/03/01 10:29:21;;;;;;;;;;;;;;;;;;5118489;27;20390;-93
2023/03/01 10:31:47;;;;;;;;;;;;;;;;;;5121311;27;19981;-92
2023/03/01 10:34:13;;;;;;;;;;;;;;;;;;5116896;27;19978;-94
2023/03/01 10:36:39;;;;;;;;;;;;;;;;;;5121678;27;19981;-94
2023/03/01 10:39:13;;;;;;;;;;;;;;;;;;5115691;27;19926;-92
2023/03/01 10:44:12;;;;;;;;;;;;;;;;;;5138258;27;20002;-96
2023/03/01 10:46:38;;;;;;;;;;;;;;;;;;5109983;27;19958;-95
2023/03/01 10:51:46;;;;;;;;;;;;;;;;;;5117553;27;19923;-91
2023/03/01 10:54:12;;;;;;;;;;;;;;;;;;5118432;27;19923;-93
2023/03/01 10:56:37;;;;;;;;;;;;;;;;;;5130909;27;20294;-93
2023/03/01 10:59:04;;;;;;;;;;;;;;;;;;5118879;27;19919;-93
2023/03/01 11:01:31;;;;;;;;;;;;;;;;;;5152327;27;19919;-94
2023/03/01 11:03:57;;;;;;;;;;;;;;;;;;5143556;27;19940;-93
2023/03/01 11:06:23;;;;;;;;;;;;;;;;;;5127743;27;19923;-94
2023/03/01 11:08:49;;;;;;;;;;;;;;;;;;5120947;27;19972;-95
2023/03/01 11:11:15;;;;;;;;;;;;;;;;;;5131248;27;20009;-93
2023/03/01 11:16:20;;;;;;;;;;;;;;;;;;5137271;27;19923;-93
2023/03/01 11:18:48;;;;;;;;;;;;;;;;;;5118846;27;19919;-95
2023/03/01 11:21:13;;;;;;;;;;;;;;;;;;5117793;27;20220;-95
2023/03/01 11:23:41;;;;;;;;;;;;;;;;;;5120431;27;19970;-96
2023/03/01 11:26:07;;;;;;;;;;;;;;;;;;5113522;27;19982;-94
2023/03/01 11:28:33;;;;;;;;;;;;;;;;;;5121050;27;19919;-95
2023/03/01 11:30:59;;;;;;;;;;;;;;;;;;5136711;27;19926;-91
2023/03/01 11:33:25;;;;;;;;;;;;;;;;;;5114879;27;19934;-92
2023/03/01 11:35:51;;;;;;;;;;;;;;;;;;5109714;28;20002;-92
2023/03/01 11:38:21;;;;;;;;;;;;;;;;;;5135478;27;19969;-94
2023/03/01 11:40:48;;;;;;;;;;;;;;;;;;5111016;28;20456;-92
2023/03/01 11:43:23;;;;;;;;;;;;;;;;;;5111689;27;19919;-91
2023/03/01 11:45:54;;;;;;;;;;;;;;;;;;5129455;27;19926;-96
2023/03/01 11:48:20;;;;;;;;;;;;;;;;;;5133549;27;19920;-96
2023/03/01 11:50:58;;;;;;;;;;;;;;;;;;5105955;27;19927;-91
2023/03/01 11:53:24;;;;;;;;;;;;;;;;;;5120109;27;20360;-92
2023/03/01 11:55:50;;;;;;;;;;;;;;;;;;5108992;27;19929;-92
2023/03/01 11:58:16;;;;;;;;;;;;;;;;;;5125050;27;20380;-92
2023/03/01 12:03:25;;;;;;;;;;;;;;;;;;5142725;27;19919;-92
2023/03/01 12:05:51;;;;;;;;;;;;;;;;;;5123747;27;19948;-92
2023/03/01 12:08:17;;;;;;;;;;;;;;;;;;5114791;27;19926;-92
2023/03/01 12:10:43;;;;;;;;;;;;;;;;;;5132029;27;19919;-92
2023/03/01 12:13:09;;;;;;;;;;;;;;;;;;5118070;27;19923;-92
2023/03/01 12:15:35;;;;;;;;;;;;;;;;;;5126187;27;19919;-92
2023/03/01 12:18:13;;;;;;;;;;;;;;;;;;5126478;27;19927;-91
2023/03/01 12:20:39;;;;;;;;;;;;;;;;;;5102793;27;19926;-92
2023/03/01 12:23:05;;;;;;;;;;;;;;;;;;5124320;27;19919;-92
2023/03/01 12:25:31;;;;;;;;;;;;;;;;;;5120114;27;20304;-92
2023/03/01 12:27:57;;;;;;;;;;;;;;;;;;5120421;27;19927;-92
2023/03/01 12:30:23;;;;;;;;;;;;;;;;;;5115310;27;19926;-92
2023/03/01 12:32:50;;;;;;;;;;;;;;;;;;5125758;27;19923;-92
2023/03/01 12:35:15;;;;;;;;;;;;;;;;;;5126016;27;19926;-92
2023/03/01 12:37:41;;;;;;;;;;;;;;;;;;5126426;27;20070;-91
2023/03/01 12:40:07;;;;;;;;;;;;;;;;;;5123760;27;20333;-91
2023/03/01 12:42:33;;;;;;;;;;;;;;;;;;5133745;27;19919;-92
2023/03/01 12:50:39;;;;;;;;;;;;;;;;;;5120553;27;19945;-92
2023/03/01 12:53:06;;;;;;;;;;;;;;;;;;5112483;27;20013;-92
2023/03/01 12:55:32;;;;;;;;;;;;;;;;;;5132823;27;20415;-92
2023/03/01 12:57:58;;;;;;;;;;;;;;;;;;5102038;27;19968;-92
2023/03/01 13:00:26;;;;;;;;;;;;;;;;;;5108263;27;19923;-93
2023/03/01 13:05:22;;;;;;;;;;;;;;;;;;5139553;27;19923;-91
2023/03/01 13:07:48;;;;;;;;;;;;;;;;;;5112687;27;19984;-91
2023/03/01 13:10:14;;;;;;;;;;;;;;;;;;5120953;27;19923;-91
2023/03/01 13:12:45;;;;;;;;;;;;;;;;;;5115900;27;20032;-90
2023/03/01 13:15:11;;;;;;;;;;;;;;;;;;5101337;27;20488;-93
2023/03/01 13:17:37;;;;;;;;;;;;;;;;;;5104691;27;19946;-92
2023/03/01 13:20:03;;;;;;;;;;;;;;;;;;5114811;27;19919;-93
2023/03/01 13:22:30;;;;;;;;;;;;;;;;;;5109913;27;19925;-94
2023/03/01 13:24:58;;;;;;;;;;;;;;;;;;5122091;27;19923;-93
2023/03/01 13:27:24;;;;;;;;;;;;;;;;;;5122418;27;20009;-93
2023/03/01 13:29:50;;;;;;;;;;;;;;;;;;5122109;27;19919;-93
2023/03/01 13:32:16;;;;;;;;;;;;;;;;;;5121971;27;20277;-92
2023/03/01 13:34:42;;;;;;;;;;;;;;;;;;5118377;27;19930;-91
2023/03/01 13:37:08;;;;;;;;;;;;;;;;;;5101394;27;19923;-93
2023/03/01 13:39:35;;;;;;;;;;;;;;;;;;5116219;27;19926;-92
2023/03/01 13:42:01;;;;;;;;;;;;;;;;;;5134087;27;19954;-92
2023/03/01 13:44:27;;;;;;;;;;;;;;;;;;5131743;27;19926;-91
2023/03/01 13:46:53;;;;;;;;;;;;;;;;;;5128982;27;20014;-93
2023/03/01 13:49:19;;;;;;;;;;;;;;;;;;5118767;27;19918;-92
2023/03/01 13:51:45;;;;;;;;;;;;;;;;;;5139113;27;19919;-93
2023/03/01 13:54:11;;;;;;;;;;;;;;;;;;5118258;27;20373;-93
2023/03/01 13:56:37;;;;;;;;;;;;;;;;;;5118632;27;19919;-92
2023/03/01 13:59:03;;;;;;;;;;;;;;;;;;5117498;27;19920;-93
2023/03/01 14:01:29;;;;;;;;;;;;;;;;;;5118236;27;20545;-93
2023/03/01 14:03:55;;;;;;;;;;;;;;;;;;5118507;27;19926;-92
2023/03/01 14:06:21;;;;;;;;;;;;;;;;;;5126554;27;20012;-92
2023/03/01 14:08:47;;;;;;;;;;;;;;;;;;5120544;27;19923;-92
2023/03/01 14:11:13;;;;;;;;;;;;;;;;;;5099820;27;19976;-92
2023/03/01 14:13:38;;;;;;;;;;;;;;;;;;5115571;27;19926;-92
2023/03/01 14:16:04;;;;;;;;;;;;;;;;;;5121329;27;19923;-92
2023/03/01 14:18:30;;;;;;;;;;;;;;;;;;5121479;27;19919;-92
2023/03/01 14:20:56;;;;;;;;;;;;;;;;;;5120794;27;19929;-92
2023/03/01 14:23:22;;;;;;;;;;;;;;;;;;5120834;27;19975;-92
2023/03/01 14:25:48;;;;;;;;;;;;;;;;;;5148064;27;19927;-92
2023/03/01 14:28:14;;;;;;;;;;;;;;;;;;5141886;27;19958;-91
2023/03/01 14:30:40;;;;;;;;;;;;;;;;;;5132452;27;19958;-92
2023/03/01 14:33:06;;;;;;;;;;;;;;;;;;5120130;27;20376;-93
2023/03/01 14:35:32;;;;;;;;;;;;;;;;;;5120820;27;19923;-92
2023/03/01 14:37:58;;;;;;;;;;;;;;;;;;5120754;27;20417;-92
2023/03/01 14:40:24;;;;;;;;;;;;;;;;;;5135177;27;19919;-91
2023/03/01 14:42:50;;;;;;;;;;;;;;;;;;5129133;27;19969;-92
2023/03/01 14:45:17;;;;;;;;;;;;;;;;;;5100735;27;20001;-93
2023/03/01 14:47:43;;;;;;;;;;;;;;;;;;5117630;27;20268;-93
2023/03/01 14:50:09;;;;;;;;;;;;;;;;;;5100100;27;19926;-92
2023/03/01 14:52:35;;;;;;;;;;;;;;;;;;5107248;27;19927;-92
2023/03/01 14:55:02;;;;;;;;;;;;;;;;;;5122102;27;20384;-93
2023/03/01 14:57:28;;;;;;;;;;;;;;;;;;5100864;27;19967;-92
2023/03/01 14:59:54;;;;;;;;;;;;;;;;;;5099656;27;19927;-92
2023/03/01 15:02:20;;;;;;;;;;;;;;;;;;5104594;27;19947;-92
2023/03/01 15:04:46;;;;;;;;;;;;;;;;;;5120720;27;20013;-91
2023/03/01 15:07:12;;;;;;;;;;;;;;;;;;5138267;27;20018;-92
2023/03/01 15:09:38;;;;;;;;;;;;;;;;;;5120884;27;19923;-92
2023/03/01 15:12:04;;;;;;;;;;;;;;;;;;5102665;27;19924;-92
2023/03/01 15:14:30;;;;;;;;;;;;;;;;;;5137553;27;19927;-92
2023/03/01 15:16:55;;;;;;;;;;;;;;;;;;5123303;27;19975;-92
2023/03/01 15:19:21;;;;;;;;;;;;;;;;;;5127566;27;19930;-92
2023/03/01 15:21:47;;;;;;;;;;;;;;;;;;5100381;27;19927;-93
2023/03/01 15:24:19;;;;;;;;;;;;;;;;;;5119904;27;20000;-92
2023/03/01 15:26:46;;;;;;;;;;;;;;;;;;5120733;27;20448;-93
2023/03/01 15:29:16;;;;;;;;;;;;;;;;;;5120194;27;19927;-92
2023/03/01 15:31:44;;;;;;;;;;;;;;;;;;5119997;27;20495;-92
2023/03/01 15:34:10;;;;;;;;;;;;;;;;;;5144952;27;19927;-92
2023/03/01 15:36:36;;;;;;;;;;;;;;;;;;5137115;27;20380;-92
2023/03/01 15:39:02;;;;;;;;;;;;;;;;;;5106299;27;20018;-92
2023/03/01 15:41:30;;;;;;;;;;;;;;;;;;5119218;27;19950;-91
2023/03/01 15:46:42;;;;;;;;;;;;;;;;;;5124740;27;19945;-91
2023/03/01 15:49:08;;;;;;;;;;;;;;;;;;5101954;28;20343;-96
2023/03/01 15:51:35;;;;;;;;;;;;;;;;;;5102634;28;19923;-90
2023/03/01 15:54:01;;;;;;;;;;;;;;;;;;5134029;27;19926;-93
2023/03/01 15:56:26;;;;;;;;;;;;;;;;;;5101399;28;19919;-92
2023/03/01 15:58:52;;;;;;;;;;;;;;;;;;5099990;27;20376;-93
2023/03/01 16:01:18;;;;;;;;;;;;;;;;;;5111752;27;20092;-93
2023/03/01 16:03:45;;;;;;;;;;;;;;;;;;5113472;27;20393;-94
2023/03/01 16:06:11;;;;;;;;;;;;;;;;;;5117308;28;20018;-93
2023/03/01 16:08:37;;;;;;;;;;;;;;;;;;5099599;28;20336;-94
2023/03/01 16:11:05;;;;;;;;;;;;;;;;;;5121748;27;20316;-94
2023/03/01 16:13:31;;;;;;;;;;;;;;;;;;5115388;27;19919;-94
2023/03/01 16:16:04;;;;;;;;;;;;;;;;;;5118587;27;19934;-93
2023/03/01 16:18:30;;;;;;;;;;;;;;;;;;5104899;27;20017;-91
2023/03/01 16:20:56;;;;;;;;;;;;;;;;;;5104018;28;19963;-94
2023/03/01 16:23:24;;;;;;;;;;;;;;;;;;5112047;27;19923;-93
2023/03/01 16:25:57;;;;;;;;;;;;;;;;;;5117209;27;19919;-94
2023/03/01 16:28:28;;;;;;;;;;;;;;;;;;5119623;28;19926;-94
2023/03/01 16:30:54;;;;;;;;;;;;;;;;;;5123858;27;20466;-94
2023/03/01 16:33:23;;;;;;;;;;;;;;;;;;5121959;27;19955;-94
2023/03/01 16:35:49;;;;;;;;;;;;;;;;;;5130415;27;19962;-94
2023/03/01 16:38:15;;;;;;;;;;;;;;;;;;5106797;27;19919;-94
2023/03/01 16:40:41;;;;;;;;;;;;;;;;;;5118359;27;20414;-91
2023/03/01 16:43:09;;;;;;;;;;;;;;;;;;5126694;27;19927;-93
2023/03/01 16:45:45;;;;;;;;;;;;;;;;;;5112231;27;19965;-94
2023/03/01 16:48:11;;;;;;;;;;;;;;;;;;5140131;27;20386;-94
2023/03/01 16:50:36;;;;;;;;;;;;;;;;;;5121580;27;19923;-94
2023/03/01 16:53:02;;;;;;;;;;;;;;;;;;5127218;27;19922;-95
2023/03/01 16:55:28;;;;;;;;;;;;;;;;;;5113775;27;20399;-94
2023/03/01 16:57:54;;;;;;;;;;;;;;;;;;5114739;27;19919;-94
2023/03/01 17:00:20;;;;;;;;;;;;;;;;;;5114626;27;19919;-94
2023/03/01 17:02:46;;;;;;;;;;;;;;;;;;5106616;27;19923;-94
2023/03/01 17:05:12;;;;;;;;;;;;;;;;;;5122610;27;19929;-93
2023/03/01 17:07:38;;;;;;;;;;;;;;;;;;5122458;27;20005;-95
2023/03/01 17:10:04;;;;;;;;;;;;;;;;;;5118423;27;20329;-94
2023/03/01 17:12:35;;;;;;;;;;;;;;;;;;5103987;27;20384;-94
2023/03/01 17:15:01;;;;;;;;;;;;;;;;;;5120903;27;19920;-94
2023/03/01 17:17:27;;;;;;;;;;;;;;;;;;5129746;27;19925;-93
2023/03/01 17:19:53;;;;;;;;;;;;;;;;;;5116139;27;19933;-93
2023/03/01 17:22:19;;;;;;;;;;;;;;;;;;5119070;27;19982;-93
2023/03/01 17:24:45;;;;;;;;;;;;;;;;;;5109390;27;19926;-93
2023/03/01 17:27:12;;;;;;;;;;;;;;;;;;5106241;27;19926;-95